createdAt,value
2022-12-18T00:00:05.159Z,-4.47
2022-12-18T00:03:01.667Z,-4.47
2022-12-18T00:05:29.816Z,-4.45
2022-12-18T00:07:57.558Z,-4.45
2022-12-18T00:10:25.425Z,-4.46
2022-12-18T00:12:53.230Z,-4.46
2022-12-18T00:15:21.199Z,-4.45
2022-12-18T00:17:48.974Z,-4.43
2022-12-18T00:20:21.783Z,-4.41
2022-12-18T00:22:49.600Z,-4.38
2022-12-18T00:25:17.267Z,-4.38
2022-12-18T00:27:45.238Z,-4.39
2022-12-18T00:30:13.789Z,-4.41
2022-12-18T00:32:41.722Z,-4.44
2022-12-18T00:35:09.849Z,-4.44
2022-12-18T00:37:37.939Z,-4.43
2022-12-18T00:40:08.680Z,-4.40
2022-12-18T00:42:55.630Z,-4.38
2022-12-18T00:45:24.966Z,-4.37
2022-12-18T00:47:52.825Z,-4.34
2022-12-18T00:50:22.060Z,-4.33
2022-12-18T00:52:49.930Z,-4.33
2022-12-18T00:55:18.293Z,-4.32
2022-12-18T00:57:48.344Z,-4.30
2022-12-18T01:03:17.944Z,-4.26
2022-12-18T01:05:49.788Z,-4.24
2022-12-18T01:08:27.779Z,-4.21
2022-12-18T01:11:03.360Z,-4.20
2022-12-18T01:13:35.584Z,-4.19
2022-12-18T01:16:09.090Z,-4.18
2022-12-18T01:18:43.768Z,-4.13
2022-12-18T01:21:15.481Z,-4.10
2022-12-18T01:23:45.290Z,-4.06
2022-12-18T01:26:18.511Z,-4.02
2022-12-18T01:28:52.666Z,-3.98
2022-12-18T01:31:31.556Z,-3.93
2022-12-18T01:34:07.488Z,-3.94
2022-12-18T01:36:40.689Z,-3.94
2022-12-18T01:39:13.585Z,-3.89
2022-12-18T01:42:02.667Z,-3.89
2022-12-18T01:45:10.821Z,-3.87
2022-12-18T01:47:46.271Z,-3.92
2022-12-18T01:50:18.091Z,-3.94
2022-12-18T01:52:52.076Z,-3.97
2022-12-18T01:55:23.538Z,-3.98
2022-12-18T01:57:54.907Z,-3.98
2022-12-18T02:00:24.736Z,-3.95
2022-12-18T02:02:54.395Z,-3.91
2022-12-18T02:05:45.599Z,-3.87
2022-12-18T02:08:40.076Z,-3.86
2022-12-18T02:11:16.732Z,-3.84
2022-12-18T02:14:03.954Z,-3.81
2022-12-18T02:16:50.636Z,-3.79
2022-12-18T02:19:40.054Z,-3.79
2022-12-18T02:22:43.975Z,-3.80
2022-12-18T02:25:54.741Z,-3.76
2022-12-18T02:28:27.363Z,-3.74
2022-12-18T02:30:59.721Z,-3.73
2022-12-18T02:33:32.073Z,-3.73
2022-12-18T02:36:01.817Z,-3.74
2022-12-18T02:38:32.270Z,-3.72
2022-12-18T02:41:07.231Z,-3.68
2022-12-18T02:43:35.156Z,-3.64
2022-12-18T02:46:29.594Z,-3.63
2022-12-18T02:49:07.804Z,-3.62
2022-12-18T02:51:58.275Z,-3.64
2022-12-18T02:54:45.396Z,-3.62
2022-12-18T02:57:25.841Z,-3.59
2022-12-18T03:00:04.046Z,-3.56
2022-12-18T03:03:02.074Z,-3.55
2022-12-18T03:05:44.385Z,-3.55
2022-12-18T03:08:22.006Z,-3.54
2022-12-18T03:11:01.640Z,-3.52
2022-12-18T03:13:38.719Z,-3.52
2022-12-18T03:16:11.881Z,-3.50
2022-12-18T03:18:47.581Z,-3.49
2022-12-18T03:21:19.697Z,-3.51
2022-12-18T03:23:50.874Z,-3.51
2022-12-18T03:26:23.584Z,-3.52
2022-12-18T03:28:58.803Z,-3.53
2022-12-18T03:31:31.159Z,-3.56
2022-12-18T03:34:02.373Z,-3.53
2022-12-18T03:36:37.405Z,-3.52
2022-12-18T03:39:06.016Z,-3.51
2022-12-18T03:41:52.687Z,-3.52
2022-12-18T03:44:46.111Z,-3.52
2022-12-18T03:47:27.072Z,-3.55
2022-12-18T03:49:59.626Z,-3.56
2022-12-18T03:52:36.333Z,-3.56
2022-12-18T03:55:08.086Z,-3.59
2022-12-18T03:57:37.120Z,-3.60
2022-12-18T04:00:10.561Z,-3.62
2022-12-18T04:03:03.580Z,-3.63
2022-12-18T04:05:38.304Z,-3.63
2022-12-18T04:08:08.637Z,-3.63
2022-12-18T04:10:39.600Z,-3.63
2022-12-18T04:13:07.663Z,-3.65
2022-12-18T04:15:38.197Z,-3.68
2022-12-18T04:18:07.362Z,-3.69
2022-12-18T04:20:40.612Z,-3.72
2022-12-18T04:23:09.471Z,-3.72
2022-12-18T04:25:38.321Z,-3.72
2022-12-18T04:28:09.348Z,-3.72
2022-12-18T04:30:37.991Z,-3.72
2022-12-18T04:33:14.280Z,-3.76
2022-12-18T04:35:43.160Z,-3.75
2022-12-18T04:38:11.517Z,-3.75
2022-12-18T04:40:40.021Z,-3.78
2022-12-18T04:43:15.421Z,-3.76
2022-12-18T04:45:43.270Z,-3.75
2022-12-18T04:48:11.259Z,-3.75
2022-12-18T04:50:39.785Z,-3.77
2022-12-18T04:53:08.723Z,-3.77
2022-12-18T04:55:37.749Z,-3.76
2022-12-18T04:58:05.894Z,-3.75
2022-12-18T05:00:33.690Z,-3.74
2022-12-18T05:03:03.364Z,-3.73
2022-12-18T05:05:31.825Z,-3.75
2022-12-18T05:07:59.600Z,-3.76
2022-12-18T05:10:27.809Z,-3.78
2022-12-18T05:13:00.088Z,-3.78
2022-12-18T05:15:31.257Z,-3.80
2022-12-18T05:18:00.105Z,-3.82
2022-12-18T05:20:29.313Z,-3.81
2022-12-18T05:22:57.569Z,-3.81
2022-12-18T05:25:25.914Z,-3.82
2022-12-18T05:27:53.705Z,-3.83
2022-12-18T05:30:21.490Z,-3.81
2022-12-18T05:32:49.551Z,-3.80
2022-12-18T05:35:17.531Z,-3.76
2022-12-18T05:37:45.339Z,-3.77
2022-12-18T05:40:13.891Z,-3.77
2022-12-18T05:42:41.845Z,-3.77
2022-12-18T05:45:10.183Z,-3.75
2022-12-18T05:47:38.440Z,-3.75
2022-12-18T05:50:07.920Z,-3.73
2022-12-18T05:52:35.575Z,-3.75
2022-12-18T05:55:03.968Z,-3.80
2022-12-18T05:57:31.904Z,-3.80
2022-12-18T05:59:59.744Z,-3.81
2022-12-18T06:02:28.217Z,-3.81
2022-12-18T06:04:56.201Z,-3.81
2022-12-18T06:07:24.394Z,-3.81
2022-12-18T06:09:52.435Z,-3.79
2022-12-18T06:12:22.154Z,-3.76
2022-12-18T06:14:50.295Z,-3.79
2022-12-18T06:17:18.223Z,-3.83
2022-12-18T06:19:46.184Z,-3.86
2022-12-18T06:22:13.983Z,-3.89
2022-12-18T06:24:42.369Z,-3.89
2022-12-18T06:27:11.308Z,-3.89
2022-12-18T06:29:39.693Z,-3.92
2022-12-18T06:32:07.737Z,-3.94
2022-12-18T06:34:40.249Z,-3.93
2022-12-18T06:37:08.257Z,-3.90
2022-12-18T06:39:36.243Z,-3.88
2022-12-18T06:42:04.552Z,-3.83
2022-12-18T06:44:32.508Z,-3.80
2022-12-18T06:47:00.575Z,-3.79
2022-12-18T06:49:30.578Z,-3.78
2022-12-18T06:51:58.695Z,-3.80
2022-12-18T06:54:26.692Z,-3.83
2022-12-18T06:56:54.991Z,-3.84
2022-12-18T06:59:22.725Z,-3.86
2022-12-18T07:01:50.822Z,-3.85
2022-12-18T07:04:18.779Z,-3.79
2022-12-18T07:06:46.650Z,-3.75
2022-12-18T07:09:14.956Z,-3.75
2022-12-18T07:11:43.074Z,-3.75
2022-12-18T07:14:11.223Z,-3.76
2022-12-18T07:16:39.382Z,-3.80
2022-12-18T07:19:07.414Z,-3.83
2022-12-18T07:21:35.464Z,-3.85
2022-12-18T07:24:04.330Z,-3.87
2022-12-18T07:26:32.346Z,-3.90
2022-12-18T07:29:00.210Z,-3.92
2022-12-18T07:31:28.629Z,-3.90
2022-12-18T07:33:56.712Z,-3.87
2022-12-18T07:36:26.225Z,-3.87
2022-12-18T07:38:54.359Z,-3.86
2022-12-18T07:41:22.336Z,-3.85
2022-12-18T07:43:50.158Z,-3.84
2022-12-18T07:46:19.395Z,-3.84
2022-12-18T07:48:49.748Z,-3.86
2022-12-18T07:51:19.549Z,-3.90
2022-12-18T07:53:49.392Z,-3.96
2022-12-18T07:56:27.706Z,-3.98
2022-12-18T07:58:56.438Z,-3.98
2022-12-18T08:01:25.406Z,-3.98
2022-12-18T08:03:53.849Z,-3.96
2022-12-18T08:06:24.009Z,-3.95
2022-12-18T08:08:56.386Z,-3.93
2022-12-18T08:11:27.263Z,-3.87
2022-12-18T08:13:55.814Z,-3.79
2022-12-18T08:16:23.846Z,-3.72
2022-12-18T08:18:53.848Z,-3.65
2022-12-18T08:21:27.593Z,-3.61
2022-12-18T08:23:57.912Z,-3.55
2022-12-18T08:26:28.621Z,-3.51
2022-12-18T08:28:57.879Z,-3.47
2022-12-18T08:31:27.433Z,-3.48
2022-12-18T08:33:56.398Z,-3.50
2022-12-18T08:36:25.445Z,-3.50
2022-12-18T08:38:54.194Z,-3.52
2022-12-18T08:41:22.563Z,-3.55
2022-12-18T08:44:09.635Z,-3.56
2022-12-18T08:46:41.131Z,-3.58
2022-12-18T08:49:11.136Z,-3.56
2022-12-18T08:51:40.141Z,-3.51
2022-12-18T08:54:11.902Z,-3.43
2022-12-18T08:56:39.664Z,-3.36
2022-12-18T08:59:07.521Z,-3.32
2022-12-18T09:01:35.611Z,-3.26
2022-12-18T09:04:04.042Z,-3.19
2022-12-18T09:06:32.621Z,-3.13
2022-12-18T09:09:00.617Z,-3.07
2022-12-18T09:11:29.608Z,-3.03
2022-12-18T09:13:58.393Z,-3.00
2022-12-18T09:16:31.677Z,-2.99
2022-12-18T09:19:00.931Z,-2.95
2022-12-18T09:21:33.936Z,-2.93
2022-12-18T09:24:08.697Z,-2.89
2022-12-18T09:26:37.695Z,-2.84
2022-12-18T09:29:05.868Z,-2.75
2022-12-18T09:31:34.989Z,-2.66
2022-12-18T09:34:02.836Z,-2.59
2022-12-18T09:36:31.661Z,-2.52
2022-12-18T09:39:02.630Z,-2.47
2022-12-18T09:41:43.253Z,-2.44
2022-12-18T09:44:26.234Z,-2.44
2022-12-18T09:47:10.702Z,-2.42
2022-12-18T09:49:43.944Z,-2.46
2022-12-18T09:52:23.278Z,-2.50
2022-12-18T09:54:59.235Z,-2.48
2022-12-18T09:57:27.803Z,-2.47
2022-12-18T10:00:08.152Z,-2.47
2022-12-18T10:02:39.722Z,-2.39
2022-12-18T10:05:15.350Z,-2.38
2022-12-18T10:07:59.290Z,-2.39
2022-12-18T10:10:44.443Z,-2.39
2022-12-18T10:13:20.819Z,-2.37
2022-12-18T10:16:04.480Z,-2.35
2022-12-18T10:18:39.118Z,-2.34
2022-12-18T10:21:22.758Z,-2.32
2022-12-18T10:24:30.490Z,-2.31
2022-12-18T10:27:13.506Z,-2.31
2022-12-18T10:29:44.229Z,-2.33
2022-12-18T10:32:25.912Z,-2.30
2022-12-18T10:35:00.181Z,-2.27
2022-12-18T10:37:30.713Z,-2.30
2022-12-18T10:40:20.167Z,-2.28
2022-12-18T10:43:13.735Z,-2.21
2022-12-18T10:45:42.950Z,-2.10
2022-12-18T10:48:20.828Z,-2.07
2022-12-18T10:53:42.521Z,-2.20
2022-12-18T10:56:10.863Z,-2.24
2022-12-18T10:58:40.924Z,-2.30
2022-12-18T11:01:18.641Z,-2.35
2022-12-18T11:04:02.421Z,-2.33
2022-12-18T11:06:31.464Z,-2.33
2022-12-18T11:09:13.216Z,-2.39
2022-12-18T11:11:50.483Z,-2.49
2022-12-18T11:14:24.160Z,-2.52
2022-12-18T11:19:42.427Z,-2.41
2022-12-18T11:22:29.063Z,-2.42
2022-12-18T11:25:35.013Z,-2.39
2022-12-18T11:28:07.034Z,-2.33
2022-12-18T11:30:39.234Z,-2.25
2022-12-18T11:33:15.907Z,-2.20
2022-12-18T11:35:59.603Z,-2.13
2022-12-18T11:38:38.679Z,-2.04
2022-12-18T11:41:15.578Z,-2.02
2022-12-18T11:43:49.030Z,-1.98
2022-12-18T11:46:33.454Z,-1.96
2022-12-18T11:49:23.727Z,-1.94
2022-12-18T11:52:00.075Z,-1.95
2022-12-18T11:54:28.575Z,-1.96
2022-12-18T11:56:59.029Z,-1.99
2022-12-18T11:59:59.851Z,-1.95
2022-12-18T12:02:27.954Z,-1.92
2022-12-18T12:05:05.039Z,-1.94
2022-12-18T12:07:53.455Z,-1.99
2022-12-18T12:10:54.438Z,-2.04
2022-12-18T12:13:30.677Z,-2.10
2022-12-18T12:16:09.807Z,-2.09
2022-12-18T12:19:08.818Z,-2.07
2022-12-18T12:21:50.092Z,-2.05
2022-12-18T12:24:36.627Z,-2.07
2022-12-18T12:27:23.166Z,-2.12
2022-12-18T12:30:12.960Z,-2.22
2022-12-18T12:33:16.936Z,-2.34
2022-12-18T12:36:03.512Z,-2.44
2022-12-18T12:38:51.842Z,-2.45
2022-12-18T12:41:49.340Z,-2.48
2022-12-18T12:44:26.986Z,-2.51
2022-12-18T12:47:00.213Z,-2.55
2022-12-18T12:49:32.254Z,-2.55
2022-12-18T12:52:31.924Z,-2.52
2022-12-18T12:55:01.732Z,-2.45
2022-12-18T12:57:38.146Z,-2.45
2022-12-18T13:00:20.630Z,-2.48
2022-12-18T13:03:10.549Z,-2.55
2022-12-18T13:05:50.016Z,-2.64
2022-12-18T13:08:33.263Z,-2.71
2022-12-18T13:11:21.606Z,-2.81
2022-12-18T13:13:55.337Z,-2.86
2022-12-18T13:16:26.382Z,-2.85
2022-12-18T13:18:57.921Z,-2.86
2022-12-18T13:21:30.080Z,-2.88
2022-12-18T13:24:16.494Z,-2.92
2022-12-18T13:26:44.485Z,-2.89
2022-12-18T13:29:12.524Z,-2.90
2022-12-18T13:31:40.600Z,-2.91
2022-12-18T13:34:26.812Z,-2.93
2022-12-18T13:37:17.802Z,-2.92
2022-12-18T13:39:45.990Z,-2.91
2022-12-18T13:42:34.264Z,-2.95
2022-12-18T13:45:02.521Z,-2.96
2022-12-18T13:47:38.493Z,-2.99
2022-12-18T13:50:28.577Z,-3.01
2022-12-18T13:53:00.460Z,-3.04
2022-12-18T13:55:28.596Z,-3.10
2022-12-18T13:58:07.519Z,-3.13
2022-12-18T14:00:35.918Z,-3.21
2022-12-18T14:03:21.791Z,-3.28
2022-12-18T14:05:58.495Z,-3.36
2022-12-18T14:08:32.306Z,-3.39
2022-12-18T14:11:02.336Z,-3.40
2022-12-18T14:13:35.221Z,-3.42
2022-12-18T14:16:06.129Z,-3.44
2022-12-18T14:18:44.956Z,-3.46
2022-12-18T14:21:21.065Z,-3.50
2022-12-18T14:23:49.294Z,-3.52
2022-12-18T14:26:30.624Z,-3.56
2022-12-18T14:29:04.651Z,-3.65
2022-12-18T14:31:32.955Z,-3.69
2022-12-18T14:34:01.119Z,-3.69
2022-12-18T14:36:30.443Z,-3.74
2022-12-18T14:38:59.313Z,-3.79
2022-12-18T14:41:28.802Z,-3.84
2022-12-18T14:44:06.083Z,-3.89
2022-12-18T14:46:34.125Z,-3.93
2022-12-18T14:49:05.512Z,-3.97
2022-12-18T14:51:35.762Z,-3.98
2022-12-18T14:54:17.559Z,-4.05
2022-12-18T14:56:48.410Z,-4.11
2022-12-18T14:59:24.665Z,-4.17
2022-12-18T15:01:59.303Z,-4.18
2022-12-18T15:04:30.447Z,-4.19
2022-12-18T15:07:05.101Z,-4.19
2022-12-18T15:09:33.515Z,-4.19
2022-12-18T15:12:02.759Z,-4.24
2022-12-18T15:14:33.531Z,-4.28
2022-12-18T15:17:03.311Z,-4.32
2022-12-18T15:19:34.369Z,-4.35
2022-12-18T15:22:06.397Z,-4.34
2022-12-18T15:24:34.994Z,-4.35
2022-12-18T15:27:03.016Z,-4.36
2022-12-18T15:29:31.062Z,-4.36
2022-12-18T15:32:04.284Z,-4.35
2022-12-18T15:34:35.083Z,-4.39
2022-12-18T15:37:03.536Z,-4.45
2022-12-18T15:39:31.358Z,-4.48
2022-12-18T15:42:17.922Z,-4.50
2022-12-18T15:44:46.140Z,-4.54
2022-12-18T15:47:14.237Z,-4.62
2022-12-18T15:49:42.325Z,-4.69
2022-12-18T15:52:14.623Z,-4.73
2022-12-18T15:55:01.246Z,-4.78
2022-12-18T15:57:29.771Z,-4.83
2022-12-18T15:59:59.201Z,-4.90
2022-12-18T16:02:29.173Z,-4.95
2022-12-18T16:04:57.718Z,-5.00
2022-12-18T16:07:28.103Z,-5.09
2022-12-18T16:10:02.328Z,-5.16
2022-12-18T16:12:30.661Z,-5.20
2022-12-18T16:14:59.880Z,-5.24
2022-12-18T16:17:27.732Z,-5.31
2022-12-18T16:19:56.505Z,-5.37
2022-12-18T16:22:27.616Z,-5.41
2022-12-18T16:24:56.866Z,-5.44
2022-12-18T16:27:26.938Z,-5.44
2022-12-18T16:29:54.887Z,-5.45
2022-12-18T16:32:23.292Z,-5.47
2022-12-18T16:34:52.021Z,-5.47
2022-12-18T16:37:20.177Z,-5.47
2022-12-18T16:39:49.424Z,-5.46
2022-12-18T16:42:20.281Z,-5.45
2022-12-18T16:44:50.063Z,-5.48
2022-12-18T16:47:19.198Z,-5.52
2022-12-18T16:49:47.213Z,-5.57
2022-12-18T16:52:15.599Z,-5.61
2022-12-18T16:54:44.050Z,-5.70
2022-12-18T16:57:14.760Z,-5.79
2022-12-18T16:59:43.164Z,-5.88
2022-12-18T17:02:17.196Z,-5.98
2022-12-18T17:04:47.702Z,-6.10
2022-12-18T17:07:16.311Z,-6.17
2022-12-18T17:09:44.210Z,-6.23
2022-12-18T17:12:12.214Z,-6.28
2022-12-18T17:14:40.331Z,-6.30
2022-12-18T17:17:20.988Z,-6.33
2022-12-18T17:19:51.331Z,-6.36
2022-12-18T17:22:20.084Z,-6.41
2022-12-18T17:24:48.417Z,-6.46
2022-12-18T17:27:19.215Z,-6.52
2022-12-18T17:29:48.676Z,-6.56
2022-12-18T17:32:18.022Z,-6.62
2022-12-18T17:34:46.479Z,-6.68
2022-12-18T17:37:14.577Z,-6.69
2022-12-18T17:39:42.652Z,-6.72
2022-12-18T17:42:11.503Z,-6.74
2022-12-18T17:44:45.120Z,-6.78
2022-12-18T17:47:14.046Z,-6.82
2022-12-18T17:49:42.019Z,-6.86
2022-12-18T17:52:10.645Z,-6.88
2022-12-18T17:54:41.508Z,-6.90
2022-12-18T17:57:09.434Z,-6.92
2022-12-18T17:59:37.336Z,-6.93
2022-12-18T18:02:05.800Z,-6.92
2022-12-18T18:04:34.281Z,-6.93
2022-12-18T18:07:03.236Z,-6.95
2022-12-18T18:09:32.500Z,-6.97
2022-12-18T18:12:20.264Z,-7.00
2022-12-18T18:14:48.381Z,-7.01
2022-12-18T18:17:16.111Z,-7.02
2022-12-18T18:19:49.511Z,-7.02
2022-12-18T18:22:19.001Z,-7.03
2022-12-18T18:24:47.177Z,-7.04
2022-12-18T18:27:15.167Z,-7.04
2022-12-18T18:29:43.617Z,-7.06
2022-12-18T18:32:11.471Z,-7.08
2022-12-18T18:34:40.454Z,-7.10
2022-12-18T18:37:10.439Z,-7.13
2022-12-18T18:39:38.294Z,-7.15
2022-12-18T18:42:06.658Z,-7.17
2022-12-18T18:44:35.262Z,-7.18
2022-12-18T18:47:03.589Z,-7.19
2022-12-18T18:49:34.181Z,-7.20
2022-12-18T18:52:02.853Z,-7.23
2022-12-18T18:54:31.155Z,-7.26
2022-12-18T18:59:46.874Z,-7.32
2022-12-18T19:02:16.443Z,-7.34
2022-12-18T19:04:45.843Z,-7.37
2022-12-18T19:07:23.863Z,-7.40
2022-12-18T19:10:02.071Z,-7.46
2022-12-18T19:12:53.125Z,-7.49
2022-12-18T19:15:21.741Z,-7.51
2022-12-18T19:17:49.855Z,-7.53
2022-12-18T19:20:18.446Z,-7.56
2022-12-18T19:22:48.596Z,-7.61
2022-12-18T19:25:38.487Z,-7.64
2022-12-18T19:28:12.052Z,-7.69
2022-12-18T19:30:52.457Z,-7.74
2022-12-18T19:33:45.728Z,-7.79
2022-12-18T19:36:25.214Z,-7.82
2022-12-18T19:38:54.437Z,-7.84
2022-12-18T19:41:22.665Z,-7.86
2022-12-18T19:43:52.875Z,-7.89
2022-12-18T19:46:23.304Z,-7.92
2022-12-18T19:48:51.944Z,-7.95
2022-12-18T19:51:22.898Z,-7.94
2022-12-18T19:53:58.423Z,-7.94
2022-12-18T19:56:31.026Z,-7.95
2022-12-18T19:58:59.730Z,-7.94
2022-12-18T20:01:28.937Z,-7.93
2022-12-18T20:03:59.755Z,-7.94
2022-12-18T20:06:32.995Z,-7.93
2022-12-18T20:09:06.455Z,-7.93
2022-12-18T20:11:39.663Z,-7.92
2022-12-18T20:14:16.876Z,-7.91
2022-12-18T20:16:53.024Z,-7.90
2022-12-18T20:19:21.903Z,-7.91
2022-12-18T20:21:49.806Z,-7.94
2022-12-18T20:24:17.756Z,-7.95
2022-12-18T20:26:46.103Z,-7.96
2022-12-18T20:29:14.236Z,-7.96
2022-12-18T20:31:42.251Z,-7.98
2022-12-18T20:34:10.371Z,-7.97
2022-12-18T20:36:38.821Z,-7.97
2022-12-18T20:39:09.858Z,-7.97
2022-12-18T20:41:39.900Z,-8.00
2022-12-18T20:44:23.020Z,-8.00
2022-12-18T20:46:57.468Z,-8.01
2022-12-18T20:49:26.685Z,-8.04
2022-12-18T20:51:56.868Z,-8.05
2022-12-18T20:54:26.857Z,-8.06
2022-12-18T20:56:55.762Z,-8.06
2022-12-18T20:59:25.548Z,-8.08
2022-12-18T21:01:54.024Z,-8.07
2022-12-18T21:04:22.497Z,-8.07
2022-12-18T21:06:55.858Z,-8.06
2022-12-18T21:09:37.841Z,-8.06
2022-12-18T21:12:35.028Z,-8.07
2022-12-18T21:15:11.230Z,-8.14
2022-12-18T21:17:41.719Z,-8.16
2022-12-18T21:20:18.086Z,-8.17
2022-12-18T21:22:47.295Z,-8.18
2022-12-18T21:25:15.710Z,-8.17
2022-12-18T21:27:44.141Z,-8.17
2022-12-18T21:30:15.028Z,-8.18
2022-12-18T21:32:43.137Z,-8.19
2022-12-18T21:35:11.420Z,-8.18
2022-12-18T21:37:40.462Z,-8.17
2022-12-18T21:40:09.338Z,-8.17
2022-12-18T21:42:55.945Z,-8.16
2022-12-18T21:45:24.063Z,-8.15
2022-12-18T21:47:52.329Z,-8.15
2022-12-18T21:50:20.437Z,-8.09
2022-12-18T21:52:49.351Z,-8.05
2022-12-18T21:55:17.266Z,-8.01
2022-12-18T21:57:45.124Z,-7.96
2022-12-18T22:00:18.452Z,-7.91
2022-12-18T22:02:59.910Z,-7.86
2022-12-18T22:05:37.022Z,-7.81
2022-12-18T22:08:06.908Z,-7.75
2022-12-18T22:10:35.853Z,-7.71
2022-12-18T22:13:06.008Z,-7.68
2022-12-18T22:15:33.979Z,-7.65
2022-12-18T22:18:02.064Z,-7.62
2022-12-18T22:20:30.748Z,-7.60
2022-12-18T22:23:02.613Z,-7.59
2022-12-18T22:25:35.483Z,-7.56
2022-12-18T22:28:26.069Z,-7.55
2022-12-18T22:30:59.012Z,-7.52
2022-12-18T22:33:28.435Z,-7.50
2022-12-18T22:35:57.234Z,-7.48
2022-12-18T22:38:25.174Z,-7.48
2022-12-18T22:40:54.486Z,-7.46
2022-12-18T22:43:22.765Z,-7.46
2022-12-18T22:45:50.778Z,-7.48
2022-12-18T22:48:18.521Z,-7.51
2022-12-18T22:50:47.218Z,-7.54
2022-12-18T22:53:16.912Z,-7.58
2022-12-18T22:55:44.670Z,-7.62
2022-12-18T22:58:12.777Z,-7.66
2022-12-18T23:00:41.080Z,-7.69
2022-12-18T23:03:09.784Z,-7.75
2022-12-18T23:05:38.427Z,-7.80
2022-12-18T23:08:06.269Z,-7.84
2022-12-18T23:10:38.849Z,-7.87
2022-12-18T23:13:07.250Z,-7.90
2022-12-18T23:15:35.289Z,-7.93
2022-12-18T23:18:03.749Z,-7.95
2022-12-18T23:20:32.237Z,-7.97
2022-12-18T23:23:00.030Z,-7.99
2022-12-18T23:25:28.055Z,-8.01
2022-12-18T23:27:56.890Z,-8.01
2022-12-18T23:30:24.898Z,-8.01
2022-12-18T23:32:53.361Z,-8.05
2022-12-18T23:35:21.988Z,-8.07
2022-12-18T23:37:59.451Z,-8.08
2022-12-18T23:40:29.651Z,-8.10
2022-12-18T23:43:00.220Z,-8.13
2022-12-18T23:45:28.852Z,-8.17
2022-12-18T23:47:57.135Z,-8.20
2022-12-18T23:50:29.259Z,-8.21
2022-12-18T23:53:05.332Z,-8.22
2022-12-18T23:55:39.533Z,-8.22
2022-12-18T23:58:14.962Z,-8.23
